Pagrindinis puslapis
METAR-TAF:

METAR-TAF

Oro uostai :

Kuusamo, Suomija

platuma: 65-58N, ilguma: 029-11E, Aukštis: 262 m

Dabartinis oras

Ataskaita buvo paskelbta 25 minutes, ne 13:20 UTC
Vėjas 4 kt iš Rytų, svyruoja nuo Rytų/Šiaurės Rytų ir Pietryčių
Temperatūra -3°C
Drėgmė 100%
Slėgis 994 hPa
Matomumas: 4800 m
Mažai debesys ne aukštis 1300 ft
Apsiniaukę ne aukštis 4400 ft
sniegas

METAR: EFKS 161320Z AUTO 09004KT 060V130 4800 -SN FEW013 OVC044 M03/M03 Q0994

Laikas: 15:45 (13:45 UTC)

Prognozė

Ataskaita buvo paskelbta 2 valandos ir 22 minutes, ne 11:23 UTC
Prognozė galioja nuo 16 metu 12 UTC su 16 metu 21 UTC
Vėjas 6 kt iš Rytų/Pietryčių
Matomumas: 8000 m
Su prošvaistėmis ne aukštis 2000 ft
sniegas
Laikinai
nuo 16 metu 12 UTC su 16 metu 14 UTC
Matomumas: 2000 m
sniegas

TAF: EFKS 161123Z 1612/1621 11006KT 8000 -SN BKN020 TEMPO 1612/1614 2000 SN

Orai ataskaitas ir orų prognozės (METAR, TAF).

turimą stotys yra geltonos ir raudonos taškus žemėlapyje.

Perkelti pele per norėdami pamatyti stoties vardą.

Tada spustelėkite, norėdami matyti oro stebėjimo ir prognozės.

Norėdami pakeisti žemėlapį: spustelėkite ant žalios mygtukų su juodo kryžiaus žemyn,; žalią mygtuką su brūkšneliu, jei norite nutolinti; arba žalių rodyklių gretimoms žemėlapius.


METAR-TAF: